Time;durP1;ratioP1;P1;durP2;ratioP2;P2;SDS_P1;SDS_P2;PMS_P1;PMS_P2;Temp;Humidity;BMP_temperature;BMP_pressure;BME280_temperature;BME280_humidity;BME280_pressure;Samples;Min_cycle;Max_cycle;Signal;HPM_P1;HPM_P2
2021/12/25 00:02:09;;;;;;;15.65;9.43;;;21.20;50.60;;;;;;5100052;28;20044;-68
2021/12/25 00:04:36;;;;;;;15.35;9.73;;;21.20;50.60;;;;;;5099595;28;20044;-69
2021/12/25 00:07:03;;;;;;;11.73;8.15;;;21.30;50.70;;;;;;5099962;28;20040;-68
2021/12/25 00:09:29;;;;;;;11.25;7.93;;;21.30;50.70;;;;;;5099706;28;20061;-69
2021/12/25 00:11:55;;;;;;;13.77;9.30;;;21.20;50.50;;;;;;5099857;28;20049;-68
2021/12/25 00:14:22;;;;;;;14.38;9.05;;;21.30;50.60;;;;;;5099692;28;20070;-68
2021/12/25 00:16:48;;;;;;;15.20;8.57;;;21.30;50.50;;;;;;5099331;28;20055;-69
2021/12/25 00:19:15;;;;;;;13.20;7.88;;;21.30;50.40;;;;;;5099637;28;20036;-68
2021/12/25 00:21:41;;;;;;;10.40;7.50;;;21.20;50.20;;;;;;5099769;28;20045;-68
2021/12/25 00:24:08;;;;;;;11.48;7.97;;;21.30;50.20;;;;;;5099396;28;20041;-69
2021/12/25 00:32:10;;;;;;;14.80;7.82;;;21.30;50.20;;;;;;5099387;28;20049;-68
2021/12/25 00:34:37;;;;;;;13.68;7.55;;;21.40;50.10;;;;;;5098187;28;20056;-69
2021/12/25 00:37:04;;;;;;;8.45;6.22;;;21.30;50.00;;;;;;5099253;28;20036;-68
2021/12/25 00:39:31;;;;;;;10.75;6.93;;;21.30;49.90;;;;;;5098888;28;20049;-69
2021/12/25 00:41:58;;;;;;;10.35;6.97;;;21.30;49.90;;;;;;5098990;28;20055;-68
2021/12/25 00:44:25;;;;;;;12.00;8.00;;;21.20;49.80;;;;;;5099291;28;20036;-68
2021/12/25 00:46:52;;;;;;;10.93;7.28;;;21.40;49.80;;;;;;5099033;28;20051;-68
2021/12/25 00:49:18;;;;;;;10.90;6.78;;;21.20;49.80;;;;;;5099099;28;20058;-68
2021/12/25 00:51:45;;;;;;;11.05;6.68;;;21.10;49.90;;;;;;5099008;28;20051;-69
2021/12/25 00:54:12;;;;;;;10.18;7.18;;;21.30;50.00;;;;;;5098677;28;20048;-68
2021/12/25 00:56:38;;;;;;;12.88;7.38;;;21.10;50.00;;;;;;5098809;28;20105;-68
2021/12/25 00:59:04;;;;;;;10.52;7.18;;;21.20;50.10;;;;;;5097918;28;20049;-68
2021/12/25 01:01:30;;;;;;;13.15;7.30;;;21.10;50.00;;;;;;5098777;28;20036;-68
2021/12/25 01:03:58;;;;;;;12.40;7.85;;;21.10;50.10;;;;;;5098067;28;20051;-68
2021/12/25 01:06:24;;;;;;;12.20;7.40;;;21.20;50.10;;;;;;5098578;28;20066;-68
2021/12/25 01:08:50;;;;;;;11.50;6.97;;;21.10;50.10;;;;;;5098032;28;20049;-68
2021/12/25 01:11:19;;;;;;;10.48;7.10;;;21.10;50.10;;;;;;5098105;28;20064;-68
2021/12/25 01:13:55;;;;;;;11.55;7.15;;;21.10;49.90;;;;;;5097943;28;20552;-68
2021/12/25 01:29:54;;;;;;;15.57;9.00;;;21.20;49.60;;;;;;5097547;28;20060;-68
2021/12/25 01:49:56;;;;;;;10.27;7.50;;;21.00;50.50;;;;;;5097871;28;20096;-68
2021/12/25 01:52:29;;;;;;;12.95;7.50;;;21.00;50.50;;;;;;5097027;28;20061;-69
2021/12/25 01:55:02;;;;;;;12.75;7.88;;;20.90;50.40;;;;;;5096522;28;20044;-69
2021/12/25 01:57:29;;;;;;;;;;;21.00;50.30;;;;;;5097502;28;20044;-69
2021/12/25 01:59:59;;;;;;;11.32;8.23;;;20.90;50.30;;;;;;5097174;28;19934;-68
2021/12/25 02:02:26;;;;;;;9.57;7.15;;;20.90;50.10;;;;;;5096952;28;20044;-68
2021/12/25 02:04:53;;;;;;;13.80;7.75;;;20.80;50.10;;;;;;5097063;28;20099;-68
2021/12/25 02:07:20;;;;;;;14.10;7.88;;;21.00;50.10;;;;;;5097286;28;20029;-69
2021/12/25 02:09:46;;;;;;;11.95;8.65;;;20.90;50.10;;;;;;5096698;28;20036;-68
2021/12/25 02:12:14;;;;;;;13.20;7.90;;;20.90;50.00;;;;;;5096966;28;20048;-69
2021/12/25 02:14:44;;;;;;;9.77;6.97;;;20.90;50.00;;;;;;5080025;28;20070;-68
2021/12/25 02:17:19;;;;;;;12.23;7.63;;;20.90;49.80;;;;;;5096545;28;20044;-69
2021/12/25 02:19:54;;;;;;;11.27;8.15;;;21.10;49.80;;;;;;5096436;28;20056;-68
2021/12/25 02:22:25;;;;;;;12.68;7.93;;;21.00;49.70;;;;;;5096461;28;20036;-68
2021/12/25 02:24:51;;;;;;;10.60;7.20;;;21.00;49.60;;;;;;5096266;28;20036;-69
2021/12/25 02:27:18;;;;;;;9.65;6.50;;;21.00;49.60;;;;;;5096316;28;20104;-68
2021/12/25 02:29:44;;;;;;;8.13;5.88;;;21.10;49.70;;;;;;5097153;28;20391;-68
2021/12/25 02:32:10;;;;;;;13.45;7.15;;;21.00;49.60;;;;;;5096326;28;20117;-68
2021/12/25 02:34:40;;;;;;;11.10;7.13;;;21.00;49.60;;;;;;5096264;28;20063;-68
2021/12/25 02:37:06;;;;;;;11.68;7.65;;;20.90;49.70;;;;;;5096290;28;20045;-68
2021/12/25 02:39:35;;;;;;;12.05;7.82;;;20.90;49.70;;;;;;5096231;28;20051;-68
2021/12/25 02:42:02;;;;;;;10.55;6.80;;;20.90;49.70;;;;;;5097042;28;20040;-68
2021/12/25 02:44:28;;;;;;;10.20;6.43;;;20.90;49.60;;;;;;5096202;28;20123;-68
2021/12/25 02:46:55;;;;;;;12.23;7.50;;;20.70;49.60;;;;;;5096254;28;20036;-68
2021/12/25 02:49:23;;;;;;;11.45;7.05;;;20.70;49.60;;;;;;5096993;28;20040;-68
2021/12/25 02:51:52;;;;;;;7.28;5.88;;;20.80;49.50;;;;;;5096289;28;20068;-68
2021/12/25 02:54:18;;;;;;;7.80;6.00;;;20.80;49.60;;;;;;5096007;28;20051;-68
2021/12/25 02:56:44;;;;;;;10.98;5.60;;;20.70;49.50;;;;;;5096778;28;20052;-69
2021/12/25 02:59:15;;;;;;;8.60;5.82;;;20.80;49.50;;;;;;5095933;28;20048;-68
2021/12/25 03:01:42;;;;;;;9.90;6.75;;;20.70;49.40;;;;;;5096771;28;20040;-68
2021/12/25 03:04:09;;;;;;;7.55;5.43;;;20.80;49.40;;;;;;5096734;28;20068;-68
2021/12/25 03:06:37;;;;;;;8.05;5.55;;;20.80;49.30;;;;;;5095713;28;20059;-69
2021/12/25 03:09:07;;;;;;;8.65;6.15;;;20.80;49.30;;;;;;5096019;28;20067;-68
2021/12/25 03:11:34;;;;;;;7.38;4.95;;;20.90;49.30;;;;;;5095945;28;20041;-67
2021/12/25 03:14:13;;;;;;;8.48;6.70;;;20.80;49.20;;;;;;5096554;28;20070;-68
2021/12/25 03:16:40;;;;;;;8.75;6.20;;;20.80;49.20;;;;;;5095972;28;20074;-68
2021/12/25 03:19:12;;;;;;;7.80;5.15;;;20.90;49.20;;;;;;5095558;28;20048;-69
2021/12/25 03:21:38;;;;;;;7.23;5.67;;;20.80;49.10;;;;;;5096611;28;20044;-69
2021/12/25 03:24:05;;;;;;;5.97;3.90;;;20.80;49.10;;;;;;5095694;28;20032;-68
2021/12/25 03:26:33;;;;;;;8.45;4.38;;;20.90;49.20;;;;;;5095705;28;20037;-68
2021/12/25 03:29:04;;;;;;;5.82;4.70;;;20.90;49.20;;;;;;5095819;28;20047;-68
2021/12/25 03:31:31;;;;;;;5.57;4.50;;;21.00;49.10;;;;;;5079124;28;20053;-69
2021/12/25 03:33:58;;;;;;;5.63;4.20;;;20.90;49.00;;;;;;5095361;28;20067;-69
2021/12/25 03:36:24;;;;;;;4.45;3.63;;;20.90;48.90;;;;;;5095740;28;20041;-68
2021/12/25 03:38:51;;;;;;;5.95;4.18;;;20.90;49.00;;;;;;5096118;28;20056;-68
2021/12/25 03:41:18;;;;;;;5.15;4.10;;;20.80;48.90;;;;;;5093506;28;20044;-68
2021/12/25 03:43:45;;;;;;;7.00;4.00;;;20.80;49.00;;;;;;5076354;28;20052;-68
2021/12/25 03:46:12;;;;;;;4.95;3.90;;;20.80;49.00;;;;;;5075611;28;20052;-68
2021/12/25 03:59:16;;;;;;;6.63;4.25;;;20.70;49.00;;;;;;5075182;28;20366;-68
2021/12/25 04:01:52;;;;;;;6.90;4.63;;;20.80;49.00;;;;;;5075176;28;20045;-68
2021/12/25 04:04:34;;;;;;;6.53;4.07;;;20.70;49.00;;;;;;5075402;28;20045;-68
2021/12/25 04:07:07;;;;;;;4.03;3.57;;;20.70;49.10;;;;;;5075363;28;20044;-68
2021/12/25 04:09:35;;;;;;;4.93;3.70;;;20.60;49.00;;;;;;5075352;28;20041;-68
2021/12/25 04:12:04;;;;;;;6.38;4.15;;;20.80;48.90;;;;;;5075286;28;20075;-68
2021/12/25 04:14:33;;;;;;;5.70;3.67;;;20.70;48.90;;;;;;5075274;28;20025;-68
2021/12/25 04:16:59;;;;;;;5.28;3.85;;;20.80;48.80;;;;;;5076539;28;20045;-68
2021/12/25 04:19:26;;;;;;;5.10;4.30;;;20.80;48.80;;;;;;5078809;28;20112;-68
2021/12/25 04:24:19;;;;;;;5.50;3.78;;;20.80;48.70;;;;;;5078762;28;20045;-68
2021/12/25 04:26:47;;;;;;;7.70;4.28;;;20.90;48.70;;;;;;5078803;28;20045;-68
2021/12/25 04:32:15;;;;;;;4.20;3.67;;;20.90;48.50;;;;;;5098699;28;20036;-68
2021/12/25 05:04:58;;;;;;;4.90;3.72;;;20.70;48.90;;;;;;5091177;28;20127;-68
2021/12/25 05:07:39;;;;;;;6.15;3.92;;;20.70;49.00;;;;;;5097878;28;20062;-68
2021/12/25 05:10:05;;;;;;;6.32;4.07;;;20.70;48.90;;;;;;5097592;28;20213;-68
2021/12/25 05:12:32;;;;;;;7.20;4.15;;;20.70;48.90;;;;;;5097924;28;20069;-69
2021/12/25 05:14:59;;;;;;;6.10;3.75;;;20.80;48.70;;;;;;5096956;28;20066;-68
2021/12/25 05:17:26;;;;;;;6.97;3.83;;;20.70;48.60;;;;;;5096765;28;20048;-69
2021/12/25 05:19:52;;;;;;;4.97;3.17;;;20.70;48.80;;;;;;5097775;28;20091;-70
2021/12/25 05:22:19;;;;;;;3.92;3.03;;;20.80;50.00;;;;;;5097168;28;20500;-71
2021/12/25 05:24:46;;;;;;;5.20;3.05;;;21.00;53.00;;;;;;5097025;28;20064;-71
2021/12/25 05:27:14;;;;;;;5.45;3.47;;;21.30;53.70;;;;;;5097194;28;20049;-71
2021/12/25 05:29:45;;;;;;;4.93;3.78;;;21.70;52.80;;;;;;5095972;28;20079;-71
2021/12/25 05:32:17;;;;;;;6.85;3.58;;;21.70;51.30;;;;;;5096847;28;20049;-71
2021/12/25 05:35:12;;;;;;;6.30;3.38;;;21.90;49.40;;;;;;5078462;28;20063;-71
2021/12/25 05:37:57;;;;;;;4.43;3.50;;;21.80;48.30;;;;;;5096917;28;20044;-72
2021/12/25 05:40:46;;;;;;;4.07;3.15;;;21.90;47.60;;;;;;5097151;28;20058;-70
2021/12/25 05:43:13;;;;;;;5.00;3.65;;;22.10;49.10;;;;;;5096960;28;20041;-71
2021/12/25 05:45:39;;;;;;;6.95;4.35;;;22.20;49.50;;;;;;5096723;28;20352;-71
2021/12/25 05:48:10;;;;;;;9.50;6.47;;;22.30;54.40;;;;;;5096378;28;20048;-70
2021/12/25 05:50:53;;;;;;;6.93;4.72;;;22.20;47.10;;;;;;5096464;28;20040;-72
2021/12/25 05:53:30;;;;;;;11.00;6.38;;;22.10;43.90;;;;;;5095874;28;20067;-71
2021/12/25 05:56:16;;;;;;;10.15;5.82;;;22.10;43.50;;;;;;5097051;28;20059;-71
2021/12/25 05:59:07;;;;;;;8.95;5.85;;;22.20;44.10;;;;;;5096559;28;20104;-70
2021/12/25 06:01:40;;;;;;;5.65;4.05;;;22.00;45.30;;;;;;5093001;28;20101;-69
2021/12/25 06:04:08;;;;;;;6.47;4.05;;;21.90;46.40;;;;;;5095966;28;20108;-69
2021/12/25 06:06:34;;;;;;;5.10;3.78;;;21.60;47.00;;;;;;5078614;28;20036;-69
2021/12/25 06:09:07;;;;;;;8.25;4.82;;;21.50;47.60;;;;;;5095788;28;20074;-69
2021/12/25 06:11:36;;;;;;;8.27;4.70;;;21.50;48.10;;;;;;5095831;28;20050;-68
2021/12/25 06:14:10;;;;;;;6.70;4.22;;;21.40;48.40;;;;;;5095318;28;20127;-68
2021/12/25 06:16:50;;;;;;;3.50;3.03;;;21.30;48.80;;;;;;5094589;28;20040;-68
2021/12/25 06:19:45;;;;;;;3.45;2.25;;;21.30;44.10;;;;;;5088060;28;20040;-67
2021/12/25 06:22:31;;;;;;;4.03;2.20;;;21.70;45.00;;;;;;5082049;28;20043;-68
2021/12/25 06:25:05;;;;;;;3.28;2.25;;;22.00;44.10;;;;;;5092861;28;20045;-67
2021/12/25 06:27:56;;;;;;;3.83;2.80;;;22.20;45.00;;;;;;5094700;28;20075;-68
2021/12/25 06:30:34;;;;;;;3.40;2.38;;;22.30;44.20;;;;;;5095644;28;20040;-68
2021/12/25 06:33:18;;;;;;;3.90;2.90;;;22.30;43.70;;;;;;5092726;28;20063;-67
2021/12/25 06:36:10;;;;;;;7.82;3.33;;;22.20;42.70;;;;;;5095471;28;20055;-68
2021/12/25 06:39:14;;;;;;;7.60;4.03;;;22.20;42.70;;;;;;5094550;28;20040;-67
2021/12/25 06:42:00;;;;;;;10.43;5.20;;;22.20;41.80;;;;;;5094612;28;20044;-67
2021/12/25 06:44:28;;;;;;;8.48;5.45;;;22.20;43.60;;;;;;5095382;28;20047;-67
2021/12/25 06:46:55;;;;;;;9.57;5.30;;;22.20;44.10;;;;;;5095361;28;20095;-68
2021/12/25 06:49:23;;;;;;;7.47;4.75;;;22.20;42.60;;;;;;5094958;28;20045;-67
2021/12/25 06:52:13;;;;;;;0.43;0.43;;;22.20;41.40;;;;;;5090294;28;20040;-68
2021/12/25 06:55:05;;;;;;;3.55;3.10;;;22.20;46.70;;;;;;5095490;28;20044;-69
2021/12/25 06:57:52;;;;;;;4.72;2.97;;;22.30;41.90;;;;;;5096009;28;20074;-68
2021/12/25 07:00:18;;;;;;;3.63;3.00;;;22.30;41.10;;;;;;5095329;28;20040;-69
2021/12/25 07:02:44;;;;;;;6.78;5.20;;;22.20;40.00;;;;;;5095454;28;20033;-69
2021/12/25 07:05:29;;;;;;;10.13;5.68;;;22.20;46.00;;;;;;5095966;28;20047;-67
2021/12/25 07:08:05;;;;;;;8.52;5.32;;;22.40;51.10;;;;;;5095935;28;20041;-70
2021/12/25 07:11:03;;;;;;;16.85;8.68;;;22.30;51.40;;;;;;5095382;28;20126;-69
2021/12/25 07:13:51;;;;;;;23.42;13.50;;;22.20;53.30;;;;;;5095786;28;20077;-69
2021/12/25 07:16:35;;;;;;;27.90;13.63;;;22.20;52.80;;;;;;5095909;28;20048;-70
2021/12/25 07:19:24;;;;;;;8.18;4.35;;;22.20;52.80;;;;;;5095401;28;20068;-70
2021/12/25 07:22:24;;;;;;;3.35;3.05;;;22.20;53.10;;;;;;5095293;28;20033;-70
2021/12/25 07:25:01;;;;;;;4.35;2.97;;;22.20;53.30;;;;;;5095172;28;20029;-70
2021/12/25 07:27:56;;;;;;;4.35;2.78;;;22.30;53.50;;;;;;5095107;28;20048;-70
2021/12/25 07:30:23;;;;;;;5.00;3.25;;;22.20;53.50;;;;;;5075550;28;20045;-70
2021/12/25 07:32:49;;;;;;;3.95;2.92;;;22.30;53.40;;;;;;5075349;28;20040;-70
2021/12/25 07:35:15;;;;;;;4.25;2.85;;;22.40;53.80;;;;;;5075800;28;20045;-69
2021/12/25 07:37:41;;;;;;;4.93;3.33;;;22.50;53.90;;;;;;5075192;28;20072;-69
2021/12/25 07:40:12;;;;;;;4.80;3.22;;;22.40;53.70;;;;;;5075175;28;20067;-70
2021/12/25 07:42:38;;;;;;;4.47;3.03;;;22.50;53.60;;;;;;5075528;28;20061;-69
2021/12/25 07:45:10;;;;;;;5.55;3.17;;;22.40;53.50;;;;;;5074674;28;20041;-69
2021/12/25 07:47:41;;;;;;;4.40;2.95;;;22.40;53.70;;;;;;5075300;28;20045;-70
2021/12/25 07:50:09;;;;;;;3.20;2.55;;;22.30;53.80;;;;;;5075097;28;20045;-70
2021/12/25 07:52:35;;;;;;;5.22;3.30;;;22.30;54.10;;;;;;5076518;28;20096;-75
2021/12/25 07:55:01;;;;;;;2.90;2.47;;;22.40;54.00;;;;;;5077877;28;20041;-73
2021/12/25 07:57:27;;;;;;;4.88;2.97;;;22.40;53.40;;;;;;5078191;28;20048;-72
2021/12/25 07:59:53;;;;;;;5.05;2.53;;;22.50;52.30;;;;;;5077566;28;20048;-72
2021/12/25 08:02:19;;;;;;;3.10;2.13;;;22.50;51.50;;;;;;5077629;28;20045;-75
2021/12/25 08:04:46;;;;;;;3.53;2.42;;;22.50;50.90;;;;;;5079868;28;20036;-72
2021/12/25 08:07:12;;;;;;;4.57;3.00;;;22.60;50.50;;;;;;5097789;28;20046;-73
2021/12/25 08:09:38;;;;;;;2.90;2.38;;;22.50;50.10;;;;;;5099027;28;20041;-73
2021/12/25 08:12:05;;;;;;;3.83;2.88;;;22.50;49.50;;;;;;5099095;28;20051;-73
2021/12/25 08:14:33;;;;;;;4.57;3.13;;;22.50;48.90;;;;;;5098587;28;20048;-74
2021/12/25 08:17:01;;;;;;;7.82;4.53;;;22.40;48.10;;;;;;5099003;28;20046;-72
2021/12/25 08:19:47;;;;;;;4.15;3.05;;;22.60;47.20;;;;;;5098809;28;20044;-73
2021/12/25 08:22:32;;;;;;;3.50;2.65;;;22.30;46.30;;;;;;5098980;28;20086;-72
2021/12/25 08:25:18;;;;;;;5.15;3.00;;;22.60;46.60;;;;;;5078299;28;20049;-70
2021/12/25 08:28:02;;;;;;;3.55;2.38;;;22.50;45.80;;;;;;5078573;28;20051;-71
2021/12/25 08:30:47;;;;;;;5.40;3.58;;;22.30;44.80;;;;;;5078217;28;20109;-69
2021/12/25 08:33:46;;;;;;;4.13;3.63;;;22.20;44.40;;;;;;5066605;28;20057;-70
2021/12/25 08:36:31;;;;;;;6.15;4.20;;;22.00;46.30;;;;;;5078379;28;20037;-69
2021/12/25 08:38:57;;;;;;;6.95;4.15;;;22.00;47.00;;;;;;5082328;28;20066;-71
2021/12/25 08:41:27;;;;;;;5.10;3.80;;;22.00;47.10;;;;;;5078684;28;20045;-69
2021/12/25 08:43:59;;;;;;;4.25;3.38;;;22.00;48.00;;;;;;5094356;28;20102;-69
2021/12/25 08:46:44;;;;;;;6.15;3.92;;;22.00;48.40;;;;;;5078503;28;20037;-70
2021/12/25 08:49:16;;;;;;;4.65;3.88;;;22.00;48.10;;;;;;5078315;28;20041;-70
2021/12/25 08:51:44;;;;;;;5.43;3.45;;;22.00;48.10;;;;;;5077700;28;20112;-70
2021/12/25 08:54:12;;;;;;;9.00;4.85;;;22.10;47.90;;;;;;5078459;28;20067;-71
2021/12/25 08:56:38;;;;;;;5.22;3.55;;;22.00;48.20;;;;;;5077464;28;20136;-70
2021/12/25 08:59:05;;;;;;;6.10;4.88;;;22.00;51.00;;;;;;5078204;28;20052;-69
2021/12/25 09:01:31;;;;;;;4.47;3.75;;;22.10;50.70;;;;;;5096712;28;20108;-69
2021/12/25 09:03:59;;;;;;;5.88;4.18;;;22.00;50.90;;;;;;5097984;28;20041;-71
2021/12/25 09:06:26;;;;;;;9.77;5.15;;;22.10;51.00;;;;;;5098149;28;20040;-72
2021/12/25 09:08:52;;;;;;;7.75;4.60;;;22.10;51.20;;;;;;5098048;28;20074;-69
2021/12/25 09:11:18;;;;;;;6.72;4.50;;;22.20;51.20;;;;;;5098003;28;20048;-69
2021/12/25 09:13:45;;;;;;;7.53;4.75;;;22.20;51.30;;;;;;5097987;28;20052;-70
2021/12/25 09:16:11;;;;;;;10.52;5.53;;;22.20;50.30;;;;;;5098175;28;20067;-70
2021/12/25 09:18:37;;;;;;;8.43;5.70;;;22.30;51.60;;;;;;5097518;28;20041;-70
2021/12/25 09:21:03;;;;;;;6.90;5.20;;;22.20;51.00;;;;;;5097891;28;20028;-69
2021/12/25 09:23:30;;;;;;;9.88;6.05;;;22.20;49.90;;;;;;5098195;28;20049;-69
2021/12/25 09:25:56;;;;;;;6.68;5.68;;;22.20;51.90;;;;;;5097726;28;20044;-69
2021/12/25 09:28:22;;;;;;;8.25;5.20;;;22.20;50.40;;;;;;5097619;28;20040;-69
2021/12/25 09:30:48;;;;;;;9.45;5.93;;;22.20;51.70;;;;;;5097722;28;20040;-69
2021/12/25 09:33:15;;;;;;;9.85;5.72;;;22.20;52.00;;;;;;5096707;28;20052;-72
2021/12/25 09:35:42;;;;;;;9.45;5.65;;;22.10;51.20;;;;;;5096672;28;20041;-70
2021/12/25 09:38:09;;;;;;;8.25;5.20;;;22.30;52.00;;;;;;5097414;28;20051;-69
2021/12/25 09:40:35;;;;;;;5.47;4.13;;;22.20;52.30;;;;;;5097494;28;20052;-69
2021/12/25 09:43:01;;;;;;;6.75;4.45;;;22.30;52.50;;;;;;5097461;28;20058;-70
2021/12/25 09:45:27;;;;;;;10.15;4.38;;;22.30;52.70;;;;;;5097299;28;20095;-69
2021/12/25 09:47:54;;;;;;;7.15;4.80;;;22.30;52.80;;;;;;5097506;28;20040;-70
2021/12/25 09:50:20;;;;;;;6.07;4.03;;;22.40;52.60;;;;;;5097264;28;20059;-70
2021/12/25 09:52:46;;;;;;;7.50;3.97;;;22.30;52.80;;;;;;5096971;28;20079;-71
2021/12/25 09:55:15;;;;;;;5.53;3.60;;;22.40;52.50;;;;;;5096481;28;20070;-69
2021/12/25 09:57:42;;;;;;;4.97;4.45;;;22.40;51.60;;;;;;5097167;28;20068;-70
2021/12/25 10:00:14;;;;;;;5.60;3.70;;;22.50;53.70;;;;;;5096935;28;20055;-71
2021/12/25 10:02:45;;;;;;;5.28;3.92;;;22.40;53.40;;;;;;5096882;28;20040;-70
2021/12/25 10:05:12;;;;;;;5.57;4.25;;;22.60;52.30;;;;;;5096361;28;20044;-70
2021/12/25 10:07:40;;;;;;;5.20;3.25;;;22.50;53.70;;;;;;5096440;28;20040;-71
2021/12/25 10:10:16;;;;;;;4.63;3.80;;;22.50;53.60;;;;;;5096668;28;20056;-71
2021/12/25 10:12:46;;;;;;;3.53;3.22;;;22.70;52.60;;;;;;5094917;28;20045;-70
2021/12/25 10:15:15;;;;;;;4.38;3.22;;;22.60;52.30;;;;;;5095442;28;20058;-71
2021/12/25 10:17:50;;;;;;;4.80;3.78;;;22.60;53.30;;;;;;5096325;28;20074;-71
2021/12/25 10:20:20;;;;;;;5.07;4.28;;;22.70;55.10;;;;;;5096365;28;20049;-71
2021/12/25 10:23:04;;;;;;;3.47;2.40;;;22.70;55.80;;;;;;5096170;28;20472;-72
2021/12/25 10:25:45;;;;;;;5.13;3.60;;;22.70;53.50;;;;;;5096530;28;20044;-71
2021/12/25 10:28:13;;;;;;;3.80;3.33;;;22.60;54.40;;;;;;5096481;28;20040;-71
2021/12/25 10:30:51;;;;;;;5.13;3.20;;;22.60;54.20;;;;;;5096301;28;20135;-71
2021/12/25 10:33:37;;;;;;;3.90;2.85;;;22.60;52.50;;;;;;5096154;28;20121;-70
2021/12/25 10:36:24;;;;;;;3.88;2.17;;;22.60;54.40;;;;;;5095368;28;20033;-71
2021/12/25 10:39:01;;;;;;;4.40;2.80;;;22.60;54.60;;;;;;5096379;28;20056;-70
2021/12/25 10:41:28;;;;;;;3.55;2.60;;;22.60;54.40;;;;;;5095900;28;20040;-71
2021/12/25 10:44:17;;;;;;;2.97;2.45;;;22.60;54.20;;;;;;5096410;28;20044;-70
2021/12/25 10:47:02;;;;;;;3.47;2.50;;;22.80;53.70;;;;;;5095894;28;20036;-71
2021/12/25 10:49:43;;;;;;;5.60;2.22;;;22.70;41.20;;;;;;5094815;28;20040;-73
2021/12/25 10:52:20;;;;;;;4.30;2.42;;;22.90;38.70;;;;;;5095125;28;20112;-72
2021/12/25 10:55:00;;;;;;;3.63;1.70;;;23.10;36.90;;;;;;5095803;28;20052;-72
2021/12/25 10:57:34;;;;;;;6.03;3.10;;;23.20;37.30;;;;;;5096152;28;20116;-71
2021/12/25 11:00:06;;;;;;;7.03;2.58;;;23.30;35.40;;;;;;5095354;28;20044;-70
2021/12/25 11:02:35;;;;;;;11.55;4.75;;;23.40;36.30;;;;;;5095108;28;20100;-70
2021/12/25 11:05:17;;;;;;;6.50;2.30;;;23.50;36.10;;;;;;5095443;28;20092;-70
2021/12/25 11:07:43;;;;;;;5.25;2.50;;;23.70;37.60;;;;;;5094823;28;20037;-69
2021/12/25 11:10:16;;;;;;;4.15;2.47;;;23.70;39.50;;;;;;5095953;28;20044;-70
2021/12/25 11:12:42;;;;;;;;;;;23.90;38.30;;;;;;5096718;28;20036;-70
2021/12/25 11:15:11;;;;;;;6.25;4.25;;;23.90;49.80;;;;;;5096055;28;19934;-70
2021/12/25 11:17:40;;;;;;;3.92;2.35;;;23.90;50.30;;;;;;5095838;28;20054;-69
2021/12/25 11:20:16;;;;;;;2.00;1.75;;;24.00;37.80;;;;;;5095839;28;20052;-69
2021/12/25 11:22:55;;;;;;;4.05;2.53;;;24.00;36.50;;;;;;5095294;28;20040;-69
2021/12/25 11:25:25;;;;;;;4.70;2.28;;;24.00;35.90;;;;;;5095848;28;20052;-70
2021/12/25 11:27:55;;;;;;;3.08;2.45;;;24.20;46.60;;;;;;5097870;28;20025;-72
2021/12/25 11:30:24;;;;;;;6.07;4.18;;;24.40;50.80;;;;;;5099678;28;20036;-71
2021/12/25 11:32:52;;;;;;;6.05;3.85;;;24.70;49.40;;;;;;5099910;28;20052;-72
2021/12/25 11:35:19;;;;;;;7.35;4.40;;;24.70;51.00;;;;;;5098483;28;20044;-72
2021/12/25 11:37:48;;;;;;;6.55;4.18;;;24.70;49.80;;;;;;5099773;28;20124;-72
2021/12/25 11:40:16;;;;;;;5.78;4.45;;;24.80;49.10;;;;;;5099448;28;20055;-71
2021/12/25 11:42:48;;;;;;;8.00;4.65;;;25.00;49.00;;;;;;5099230;28;20066;-71
2021/12/25 11:45:17;;;;;;;7.20;4.50;;;25.10;48.70;;;;;;5098078;28;20040;-71
2021/12/25 11:47:47;;;;;;;6.00;4.68;;;25.20;48.40;;;;;;5099292;28;20037;-70
2021/12/25 11:50:22;;;;;;;6.97;4.50;;;25.00;48.40;;;;;;5099002;28;20067;-70
2021/12/25 11:53:31;;;;;;;6.07;4.10;;;25.00;48.60;;;;;;5080937;28;20036;-72
2021/12/25 11:58:54;;;;;;;6.20;3.80;;;24.80;48.90;;;;;;5098126;28;20051;-71
2021/12/25 12:01:26;;;;;;;4.63;3.33;;;24.70;49.30;;;;;;5096782;28;20036;-72
2021/12/25 12:03:57;;;;;;;4.28;3.25;;;24.60;50.00;;;;;;5098228;28;20096;-71
2021/12/25 12:06:44;;;;;;;6.78;3.72;;;24.50;50.30;;;;;;5099031;28;20038;-72
2021/12/25 12:09:14;;;;;;;5.30;3.92;;;24.30;50.30;;;;;;5098773;28;20131;-71
2021/12/25 12:12:20;;;;;;;4.65;3.90;;;24.30;50.60;;;;;;5097529;28;20036;-73
2021/12/25 12:15:10;;;;;;;4.68;3.67;;;24.20;51.50;;;;;;5098983;28;20063;-70
2021/12/25 12:17:56;;;;;;;7.57;4.40;;;24.10;50.90;;;;;;5097927;28;20042;-70
2021/12/25 12:20:39;;;;;;;5.28;3.97;;;24.10;51.60;;;;;;5098027;28;20044;-70
2021/12/25 12:24:26;;;;;;;6.88;3.80;;;24.10;51.00;;;;;;5098679;28;20063;-71
2021/12/25 12:26:48;;;;;;;5.63;4.30;;;24.00;51.60;;;;;;5098105;28;20032;-69
2021/12/25 12:29:35;;;;;;;6.95;4.65;;;23.80;51.90;;;;;;5094068;28;20047;-69
2021/12/25 12:32:02;;;;;;;5.68;4.03;;;23.80;50.70;;;;;;5097409;28;20099;-70
2021/12/25 12:34:36;;;;;;;5.63;3.42;;;23.50;51.30;;;;;;5077497;28;20091;-71
2021/12/25 12:37:14;;;;;;;6.10;3.97;;;23.50;54.10;;;;;;5077535;28;20049;-71
2021/12/25 12:40:05;;;;;;;5.88;3.88;;;23.40;51.00;;;;;;5078661;28;20041;-70
2021/12/25 12:42:44;;;;;;;4.68;3.70;;;23.30;53.00;;;;;;5078379;28;20057;-70
2021/12/25 12:45:13;;;;;;;4.32;3.78;;;23.30;52.90;;;;;;5097598;28;20090;-70
2021/12/25 12:47:41;;;;;;;5.32;3.58;;;23.40;53.90;;;;;;5097619;28;20032;-70
2021/12/25 12:50:11;;;;;;;6.22;3.92;;;23.40;54.70;;;;;;5098001;28;20062;-69
2021/12/25 12:52:40;;;;;;;4.93;3.28;;;23.30;54.90;;;;;;5097947;28;20044;-70
2021/12/25 12:55:11;;;;;;;5.40;4.10;;;23.40;54.70;;;;;;5096710;28;20044;-69
2021/12/25 12:57:42;;;;;;;3.35;1.88;;;23.40;55.00;;;;;;5097322;28;20032;-70
2021/12/25 13:00:18;;;;;;;2.50;1.90;;;23.40;41.20;;;;;;5096813;28;20041;-69
2021/12/25 13:02:49;;;;;;;1.63;1.52;;;23.60;38.90;;;;;;5097675;28;20048;-69
2021/12/25 13:05:23;;;;;;;5.05;1.83;;;23.90;42.80;;;;;;5098210;28;20040;-69
2021/12/25 13:07:52;;;;;;;3.67;2.22;;;23.90;35.20;;;;;;5098115;28;20100;-69
2021/12/25 13:10:30;;;;;;;2.10;1.88;;;24.00;35.30;;;;;;5097129;28;20044;-69
2021/12/25 13:13:13;;;;;;;4.22;2.45;;;24.10;33.50;;;;;;5097635;28;20055;-70
2021/12/25 13:15:41;;;;;;;;;;;24.20;34.60;;;;;;5097969;28;20040;-70
2021/12/25 13:18:07;;;;;;;3.47;2.47;;;24.50;33.70;;;;;;5097747;28;19939;-69
2021/12/25 13:20:39;;;;;;;3.92;2.13;;;24.30;36.10;;;;;;5097747;28;20043;-69
2021/12/25 13:23:22;;;;;;;2.05;1.65;;;24.40;36.60;;;;;;5097029;28;20032;-70
2021/12/25 13:26:00;;;;;;;3.47;2.40;;;24.40;36.50;;;;;;5097655;28;20063;-69
2021/12/25 13:28:31;;;;;;;3.22;2.15;;;24.50;37.10;;;;;;5097745;28;20074;-68
2021/12/25 13:31:04;;;;;;;9.40;3.55;;;24.60;38.10;;;;;;5096568;28;20040;-69
2021/12/25 13:33:35;;;;;;;11.80;2.97;;;24.80;39.10;;;;;;5096167;28;20036;-69
2021/12/25 13:36:07;;;;;;;6.50;3.03;;;24.80;41.10;;;;;;5096855;28;20044;-70
2021/12/25 13:38:56;;;;;;;5.35;2.40;;;24.90;42.50;;;;;;5096317;28;20037;-69
2021/12/25 13:41:40;;;;;;;6.97;2.25;;;24.80;39.20;;;;;;5096736;28;20052;-70
2021/12/25 13:44:33;;;;;;;4.05;2.88;;;25.10;43.00;;;;;;5096657;28;20136;-69
2021/12/25 13:47:14;;;;;;;6.40;2.50;;;25.10;51.10;;;;;;5097033;28;20040;-69
2021/12/25 13:49:40;;;;;;;4.93;3.72;;;25.20;40.60;;;;;;5096316;28;20071;-69
2021/12/25 13:52:13;;;;;;;3.33;2.03;;;25.20;36.50;;;;;;5096488;28;20107;-69
2021/12/25 13:54:46;;;;;;;3.72;3.20;;;25.10;36.30;;;;;;5097239;28;20048;-68
2021/12/25 13:57:14;;;;;;;4.30;1.83;;;25.20;35.60;;;;;;5096218;28;20072;-67
2021/12/25 13:59:41;;;;;;;3.53;2.72;;;25.10;37.10;;;;;;5096658;28;20055;-67
2021/12/25 14:02:14;;;;;;;2.85;2.35;;;25.10;36.20;;;;;;5096745;28;20068;-67
2021/12/25 14:04:51;;;;;;;2.92;2.13;;;25.20;36.40;;;;;;5096622;28;20055;-66
2021/12/25 14:07:20;;;;;;;5.15;3.20;;;25.20;43.30;;;;;;5095822;28;20036;-69
2021/12/25 14:09:59;;;;;;;2.30;1.80;;;25.30;39.40;;;;;;5096706;28;20044;-67
2021/12/25 14:12:28;;;;;;;4.13;2.25;;;25.30;37.00;;;;;;5096524;28;20069;-69
2021/12/25 14:14:56;;;;;;;2.88;2.00;;;25.40;38.70;;;;;;5096299;28;20040;-66
2021/12/25 14:17:23;;;;;;;3.22;2.47;;;25.30;46.30;;;;;;5096027;28;20048;-66
2021/12/25 14:19:49;;;;;;;10.48;2.80;;;25.40;43.00;;;;;;5095812;28;20048;-68
2021/12/25 14:22:20;;;;;;;5.93;2.90;;;25.50;42.40;;;;;;5095296;28;20047;-66
2021/12/25 14:24:49;;;;;;;5.50;3.20;;;25.50;42.90;;;;;;5096010;28;20036;-67
2021/12/25 14:27:22;;;;;;;3.45;2.72;;;25.70;47.50;;;;;;5093311;28;20067;-66
2021/12/25 14:29:49;;;;;;;18.02;3.55;;;25.70;39.10;;;;;;5095665;28;20048;-66
2021/12/25 14:32:19;;;;;;;10.57;3.35;;;25.60;40.10;;;;;;5095901;28;20044;-65
2021/12/25 14:34:46;;;;;;;10.90;4.45;;;25.60;41.10;;;;;;5095545;28;20095;-65
2021/12/25 14:37:14;;;;;;;12.18;4.50;;;25.70;47.80;;;;;;5095678;28;20059;-68
2021/12/25 14:39:40;;;;;;;14.95;5.00;;;25.70;40.20;;;;;;5095487;28;20049;-66